Time;durP1;ratioP1;P1;durP2;ratioP2;P2;SDS_P1;SDS_P2;PMS_P1;PMS_P2;Temp;Humidity;BMP_temperature;BMP_pressure;BME280_temperature;BME280_humidity;BME280_pressure;Samples;Min_cycle;Max_cycle;Signal;HPM_P1;HPM_P2
2022/11/13 00:00:35;;;;;;;9.97;8.47;;;10.00;99.90;;;;;;5093922;28;20467;-35
2022/11/13 00:03:01;;;;;;;9.93;8.53;;;10.00;99.90;;;;;;5114920;27;20408;-35
2022/11/13 00:05:27;;;;;;;9.23;8.33;;;9.90;99.90;;;;;;5091559;27;20418;-35
2022/11/13 00:07:53;;;;;;;12.63;10.70;;;9.90;99.90;;;;;;5089696;28;20434;-35
2022/11/13 00:10:18;;;;;;;11.50;10.37;;;9.90;99.90;;;;;;5096400;28;20203;-35
2022/11/13 00:12:44;;;;;;;13.53;11.23;;;9.90;99.90;;;;;;5123589;28;20241;-36
2022/11/13 00:15:10;;;;;;;12.83;11.33;;;9.90;99.90;;;;;;5090138;28;20192;-36
2022/11/13 00:17:35;;;;;;;11.43;10.30;;;10.00;99.90;;;;;;5089376;28;20547;-35
2022/11/13 00:20:01;;;;;;;13.10;11.00;;;10.00;99.90;;;;;;5088785;28;20631;-35
2022/11/13 00:22:27;;;;;;;12.33;10.77;;;10.10;99.90;;;;;;5098300;28;20182;-35
2022/11/13 00:24:53;;;;;;;13.33;12.13;;;10.10;99.90;;;;;;5094101;28;20191;-35
2022/11/13 00:27:19;;;;;;;12.40;11.20;;;10.10;99.90;;;;;;5093212;28;20268;-36
2022/11/13 00:29:44;;;;;;;13.70;11.80;;;10.10;99.90;;;;;;5092520;28;20418;-35
2022/11/13 00:32:10;;;;;;;13.10;11.70;;;10.00;99.90;;;;;;5093229;28;20206;-36
2022/11/13 00:34:36;;;;;;;16.17;11.27;;;10.00;99.90;;;;;;5090836;28;20188;-35
2022/11/13 00:37:01;;;;;;;12.17;10.90;;;9.90;99.90;;;;;;5093160;28;20216;-35
2022/11/13 00:39:27;;;;;;;13.07;11.10;;;9.90;99.90;;;;;;5092349;28;20565;-35
2022/11/13 00:41:53;;;;;;;13.00;11.70;;;9.80;99.90;;;;;;5093072;28;20242;-35
2022/11/13 00:44:18;;;;;;;12.97;11.37;;;9.80;99.90;;;;;;5092517;28;20189;-35
2022/11/13 00:46:44;;;;;;;12.40;11.10;;;9.70;99.90;;;;;;5091479;28;20192;-36
2022/11/13 00:49:10;;;;;;;12.00;10.73;;;9.80;99.90;;;;;;5092211;28;20184;-36
2022/11/13 00:51:35;;;;;;;13.23;11.80;;;9.70;99.90;;;;;;5092900;28;20224;-35
2022/11/13 00:54:01;;;;;;;12.97;11.60;;;9.70;99.90;;;;;;5092350;28;20203;-36
2022/11/13 00:56:27;;;;;;;12.53;11.20;;;9.70;99.90;;;;;;5092587;28;20267;-36
2022/11/13 00:58:52;;;;;;;12.17;10.90;;;9.70;99.90;;;;;;5092096;28;20867;-35
2022/11/13 01:01:19;;;;;;;11.60;10.40;;;9.70;99.90;;;;;;5092430;28;20207;-36
2022/11/13 01:03:45;;;;;;;13.30;10.10;;;9.60;99.90;;;;;;5091885;28;20694;-35
2022/11/13 01:06:20;;;;;;;10.50;9.40;;;9.50;99.90;;;;;;5092266;28;20521;-36
2022/11/13 01:08:46;;;;;;;12.07;9.83;;;9.50;99.90;;;;;;5092019;28;20275;-35
2022/11/13 01:11:18;;;;;;;11.00;9.80;;;9.60;99.90;;;;;;5092412;28;20772;-35
2022/11/13 01:13:45;;;;;;;11.63;9.73;;;9.60;99.90;;;;;;5092043;28;20419;-35
2022/11/13 01:16:13;;;;;;;11.67;9.73;;;9.70;99.90;;;;;;5092277;28;20411;-35
2022/11/13 01:18:40;;;;;;;15.23;10.57;;;9.70;99.90;;;;;;5090328;28;20450;-35
2022/11/13 01:21:13;;;;;;;13.13;9.90;;;9.60;99.90;;;;;;5092498;28;20831;-35
2022/11/13 01:23:39;;;;;;;11.50;9.53;;;9.60;99.90;;;;;;5108972;28;20405;-35
2022/11/13 01:26:07;;;;;;;13.87;10.07;;;9.40;99.90;;;;;;5112726;28;20899;-35
2022/11/13 01:28:33;;;;;;;14.90;10.63;;;9.40;99.90;;;;;;5110762;28;20179;-35
2022/11/13 01:30:59;;;;;;;13.23;11.20;;;9.40;99.90;;;;;;5110967;28;20510;-35
2022/11/13 01:33:24;;;;;;;16.13;10.40;;;9.40;99.90;;;;;;5110127;28;20195;-35
2022/11/13 01:35:50;;;;;;;13.03;10.33;;;9.30;99.90;;;;;;5112280;28;20180;-35
2022/11/13 01:38:16;;;;;;;13.20;9.87;;;9.30;99.90;;;;;;5112350;28;20203;-35
2022/11/13 01:40:46;;;;;;;13.10;9.40;;;9.30;99.90;;;;;;5111831;28;20907;-35
2022/11/13 01:43:37;;;;;;;11.43;6.57;;;9.40;99.90;;;;;;5111901;28;20653;-35
2022/11/13 01:46:21;;;;;;;10.77;8.00;;;9.60;99.90;;;;;;5107760;28;20770;-35
2022/11/13 01:48:51;;;;;;;8.27;6.20;;;9.80;99.90;;;;;;5111794;28;20911;-35
2022/11/13 01:51:44;;;;;;;8.87;7.47;;;9.90;99.90;;;;;;5112112;28;20806;-35
2022/11/13 01:54:14;;;;;;;10.57;7.80;;;9.90;99.90;;;;;;5111646;28;20417;-36
2022/11/13 01:56:40;;;;;;;9.97;8.43;;;10.00;99.90;;;;;;5111841;28;20445;-35
2022/11/13 01:59:09;;;;;;;15.60;10.40;;;10.00;99.90;;;;;;5111467;28;20452;-35
2022/11/13 02:01:35;;;;;;;11.23;8.53;;;9.90;99.90;;;;;;5110644;28;20413;-35
2022/11/13 02:04:01;;;;;;;15.00;10.03;;;9.90;99.90;;;;;;5110277;28;20413;-36
2022/11/13 02:06:32;;;;;;;19.20;12.00;;;9.90;99.90;;;;;;5109821;28;20238;-35
2022/11/13 02:08:57;;;;;;;17.20;11.97;;;9.70;99.90;;;;;;5111286;28;20219;-36
2022/11/13 02:11:24;;;;;;;17.87;11.87;;;9.70;99.90;;;;;;5111770;28;21138;-35
2022/11/13 02:13:50;;;;;;;16.37;11.17;;;9.60;99.90;;;;;;5111331;28;20538;-35
2022/11/13 02:16:17;;;;;;;16.13;10.07;;;9.60;99.90;;;;;;5111473;28;20444;-35
2022/11/13 02:18:43;;;;;;;15.40;11.73;;;9.60;99.90;;;;;;5110712;28;20539;-36
2022/11/13 02:21:29;;;;;;;18.57;11.77;;;9.60;99.90;;;;;;5111664;28;20509;-35
2022/11/13 02:24:15;;;;;;;12.47;9.50;;;9.60;99.90;;;;;;5091759;28;20418;-36
2022/11/13 02:26:41;;;;;;;11.90;8.33;;;9.60;99.90;;;;;;5089983;28;20501;-36
2022/11/13 02:29:07;;;;;;;13.93;8.50;;;9.70;99.90;;;;;;5090186;28;20464;-36
2022/11/13 02:31:33;;;;;;;12.83;8.33;;;9.70;99.90;;;;;;5090985;28;20418;-36
2022/11/13 02:34:01;;;;;;;11.80;7.33;;;9.80;99.90;;;;;;5088916;28;20180;-36
2022/11/13 02:36:27;;;;;;;12.77;8.50;;;9.80;99.90;;;;;;5089657;28;20618;-35
2022/11/13 02:38:55;;;;;;;8.00;7.00;;;9.80;99.90;;;;;;5090346;28;20442;-35
2022/11/13 02:41:21;;;;;;;10.70;8.00;;;9.80;99.90;;;;;;5090577;28;20407;-35
2022/11/13 02:43:46;;;;;;;7.17;5.50;;;9.80;99.90;;;;;;5090297;28;20417;-35
2022/11/13 02:46:12;;;;;;;7.07;5.50;;;9.80;99.90;;;;;;5089974;28;20556;-35
2022/11/13 02:48:38;;;;;;;7.57;5.63;;;9.90;99.90;;;;;;5090369;28;20189;-36
2022/11/13 02:51:04;;;;;;;7.00;5.53;;;9.90;99.90;;;;;;5089311;28;20257;-36
2022/11/13 02:53:29;;;;;;;7.17;5.13;;;10.00;99.90;;;;;;5090276;28;20180;-36
2022/11/13 02:55:55;;;;;;;8.00;4.43;;;10.20;99.90;;;;;;5088944;28;20489;-35
2022/11/13 02:58:21;;;;;;;5.67;5.10;;;10.30;99.90;;;;;;5090229;28;20211;-35
2022/11/13 03:00:46;;;;;;;5.67;4.93;;;10.40;99.90;;;;;;5090359;28;20176;-35
2022/11/13 03:03:12;;;;;;;5.90;5.30;;;10.50;99.90;;;;;;5090053;28;20255;-35
2022/11/13 03:05:38;;;;;;;6.77;5.20;;;10.60;99.90;;;;;;5089024;28;20188;-35
2022/11/13 03:08:05;;;;;;;5.50;5.00;;;10.70;99.90;;;;;;5090230;28;20196;-35
2022/11/13 03:10:31;;;;;;;5.13;4.20;;;10.60;99.90;;;;;;5089882;28;20844;-35
2022/11/13 03:12:58;;;;;;;5.63;4.57;;;10.60;99.90;;;;;;5089717;28;20423;-35
2022/11/13 03:15:24;;;;;;;4.90;4.50;;;10.60;99.90;;;;;;5090161;28;20288;-35
2022/11/13 03:17:49;;;;;;;5.03;4.53;;;10.50;99.90;;;;;;5090006;28;20502;-35
2022/11/13 03:20:15;;;;;;;6.07;4.23;;;10.60;99.90;;;;;;5089762;28;20886;-35
2022/11/13 03:22:41;;;;;;;4.80;4.27;;;10.60;99.70;;;;;;5098938;28;20234;-35
2022/11/13 03:25:07;;;;;;;6.80;5.20;;;10.60;99.70;;;;;;5110344;28;20516;-35
2022/11/13 03:27:33;;;;;;;7.03;5.30;;;10.70;99.90;;;;;;5110426;28;20180;-35
2022/11/13 03:29:58;;;;;;;6.50;5.33;;;10.60;99.90;;;;;;5108652;28;20409;-35
2022/11/13 03:32:24;;;;;;;9.70;7.20;;;10.60;99.90;;;;;;5109011;28;20180;-36
2022/11/13 03:34:50;;;;;;;9.60;7.00;;;10.50;99.90;;;;;;5109958;28;20180;-35
2022/11/13 03:37:15;;;;;;;8.07;6.63;;;10.40;99.90;;;;;;5110323;28;20179;-35
2022/11/13 03:39:41;;;;;;;8.80;6.90;;;10.40;99.90;;;;;;5109669;28;20215;-35
2022/11/13 03:42:07;;;;;;;10.77;7.80;;;10.40;99.90;;;;;;5110404;28;20230;-35
2022/11/13 03:44:32;;;;;;;9.37;6.87;;;10.20;99.90;;;;;;5091855;28;20519;-35
2022/11/13 03:46:58;;;;;;;8.70;6.80;;;10.10;99.90;;;;;;5110354;28;20187;-35
2022/11/13 03:49:23;;;;;;;8.00;6.40;;;10.00;99.90;;;;;;5109841;28;20652;-35
2022/11/13 03:51:49;;;;;;;9.90;6.90;;;9.90;99.90;;;;;;5110040;28;20176;-35
2022/11/13 03:54:15;;;;;;;5.80;5.10;;;9.80;99.90;;;;;;5109725;28;20668;-35
2022/11/13 03:56:40;;;;;;;7.37;5.47;;;9.90;99.90;;;;;;5111069;28;20186;-36
2022/11/13 03:59:06;;;;;;;5.63;4.20;;;10.00;99.90;;;;;;5113803;28;20214;-35
2022/11/13 04:01:32;;;;;;;6.33;4.47;;;10.00;99.90;;;;;;5114117;28;20258;-35
2022/11/13 04:03:57;;;;;;;3.93;3.53;;;10.10;99.90;;;;;;5113795;28;20179;-35
2022/11/13 04:06:23;;;;;;;4.43;4.00;;;10.10;99.90;;;;;;5114043;28;20689;-35
2022/11/13 04:08:48;;;;;;;5.60;4.60;;;10.20;99.90;;;;;;5113707;27;20183;-35
2022/11/13 04:11:14;;;;;;;5.53;3.43;;;10.30;99.90;;;;;;5113817;28;20247;-36
2022/11/13 04:13:40;;;;;;;3.93;3.53;;;10.40;98.70;;;;;;5113640;28;20223;-35
2022/11/13 04:16:06;;;;;;;4.57;3.83;;;10.50;98.20;;;;;;5113930;28;20868;-35
2022/11/13 04:18:31;;;;;;;4.10;3.70;;;10.50;98.10;;;;;;5113333;28;20231;-35
2022/11/13 04:20:58;;;;;;;4.07;3.63;;;10.60;97.50;;;;;;5113884;28;20982;-36
2022/11/13 04:23:24;;;;;;;3.40;3.10;;;10.60;97.30;;;;;;5098178;28;20183;-35
2022/11/13 04:25:50;;;;;;;4.67;4.27;;;10.70;97.00;;;;;;5093219;28;20883;-35
2022/11/13 04:28:15;;;;;;;4.10;3.70;;;10.60;97.20;;;;;;5093451;28;20612;-35
2022/11/13 04:30:41;;;;;;;5.30;4.13;;;10.60;97.40;;;;;;5092823;28;20223;-35
2022/11/13 04:33:07;;;;;;;4.70;3.80;;;10.70;97.50;;;;;;5091542;28;20579;-35
2022/11/13 04:35:33;;;;;;;5.33;4.10;;;10.70;97.70;;;;;;5093088;28;20255;-35
2022/11/13 04:37:59;;;;;;;5.73;4.53;;;10.60;97.70;;;;;;5093036;28;20208;-35
2022/11/13 04:40:24;;;;;;;4.73;4.17;;;10.50;98.00;;;;;;5074295;28;20783;-35
2022/11/13 04:42:50;;;;;;;4.00;3.60;;;10.50;97.40;;;;;;5092950;28;20179;-35
2022/11/13 04:45:21;;;;;;;5.83;3.43;;;10.50;97.30;;;;;;5092827;28;20173;-36
2022/11/13 04:47:47;;;;;;;3.50;3.17;;;10.60;96.20;;;;;;5093160;28;20179;-35
2022/11/13 04:50:14;;;;;;;3.80;2.93;;;10.60;95.40;;;;;;5092472;28;20398;-35
2022/11/13 04:52:40;;;;;;;3.50;2.77;;;10.60;95.10;;;;;;5092432;28;20502;-35
2022/11/13 04:55:07;;;;;;;4.70;3.10;;;10.60;94.90;;;;;;5092782;28;20402;-35
2022/11/13 04:57:32;;;;;;;3.40;3.10;;;10.70;95.20;;;;;;5092757;28;20865;-35
2022/11/13 04:59:58;;;;;;;4.70;3.30;;;10.70;95.20;;;;;;5092219;28;20482;-35
2022/11/13 05:02:24;;;;;;;4.03;3.37;;;10.70;95.50;;;;;;5092468;28;20208;-36
2022/11/13 05:04:50;;;;;;;4.17;3.23;;;10.60;95.60;;;;;;5092549;28;20622;-35
2022/11/13 05:07:16;;;;;;;3.97;3.57;;;10.60;95.60;;;;;;5092198;28;20196;-35
2022/11/13 05:09:42;;;;;;;3.43;3.13;;;10.50;96.00;;;;;;5091233;28;20204;-35
2022/11/13 05:12:07;;;;;;;5.33;3.93;;;10.50;95.90;;;;;;5092506;28;21130;-35
2022/11/13 05:14:37;;;;;;;3.50;3.20;;;10.40;96.10;;;;;;5092121;28;20203;-35
2022/11/13 05:17:04;;;;;;;3.53;3.23;;;10.40;96.60;;;;;;5092375;28;20172;-35
2022/11/13 05:19:32;;;;;;;4.73;3.33;;;10.40;96.30;;;;;;5091722;28;20489;-35
2022/11/13 05:21:58;;;;;;;3.33;3.03;;;10.40;96.30;;;;;;5094984;28;21030;-35
2022/11/13 05:24:24;;;;;;;3.80;3.10;;;10.30;96.50;;;;;;5112177;28;20416;-35
2022/11/13 05:26:50;;;;;;;3.67;3.30;;;10.30;96.70;;;;;;5112740;28;20437;-35
2022/11/13 05:29:16;;;;;;;7.27;5.80;;;10.30;96.20;;;;;;5111997;28;20445;-35
2022/11/13 05:31:41;;;;;;;3.70;3.20;;;10.30;96.60;;;;;;5112627;28;20260;-35
2022/11/13 05:34:07;;;;;;;3.90;3.17;;;10.20;97.20;;;;;;5109812;28;20187;-35
2022/11/13 05:36:33;;;;;;;4.00;3.50;;;10.10;97.20;;;;;;5112337;27;20862;-35
2022/11/13 05:38:59;;;;;;;3.00;2.80;;;10.20;97.00;;;;;;5110896;28;20220;-35
2022/11/13 05:41:25;;;;;;;3.50;3.20;;;10.20;96.60;;;;;;5112210;28;20529;-35
2022/11/13 05:43:51;;;;;;;3.30;2.90;;;10.30;96.20;;;;;;5112170;28;20558;-35
2022/11/13 05:46:25;;;;;;;3.27;2.70;;;10.30;95.90;;;;;;5112153;28;20492;-35
2022/11/13 05:48:54;;;;;;;2.80;2.60;;;10.20;95.60;;;;;;5111751;28;20536;-35
2022/11/13 05:51:23;;;;;;;3.20;2.40;;;10.20;96.10;;;;;;5111856;28;20414;-35
2022/11/13 05:53:49;;;;;;;3.30;2.30;;;10.20;95.80;;;;;;5111816;28;20412;-35
2022/11/13 05:56:21;;;;;;;2.80;2.50;;;10.30;95.20;;;;;;5111943;28;20405;-36
2022/11/13 05:58:47;;;;;;;2.27;2.07;;;10.30;94.90;;;;;;5111594;28;20469;-35
2022/11/13 06:01:15;;;;;;;2.70;2.27;;;10.30;94.60;;;;;;5111473;28;20406;-35
2022/11/13 06:03:41;;;;;;;2.60;2.00;;;10.40;94.40;;;;;;5110305;27;20410;-35
2022/11/13 06:06:11;;;;;;;2.10;1.90;;;10.40;93.60;;;;;;5109564;28;20441;-35
2022/11/13 06:08:38;;;;;;;1.80;1.70;;;10.50;93.50;;;;;;5111155;28;20445;-35
2022/11/13 06:11:16;;;;;;;1.83;1.57;;;10.50;92.40;;;;;;5111585;28;20429;-35
2022/11/13 06:13:42;;;;;;;1.30;1.10;;;10.60;92.50;;;;;;5111413;28;20417;-36
2022/11/13 06:16:13;;;;;;;5.20;1.90;;;10.70;91.30;;;;;;5111381;28;20412;-36
2022/11/13 06:18:40;;;;;;;1.20;1.00;;;10.80;91.00;;;;;;5111203;28;20294;-35
2022/11/13 06:21:15;;;;;;;2.20;1.20;;;11.00;89.70;;;;;;5111494;28;20417;-35
2022/11/13 06:23:41;;;;;;;2.00;1.50;;;11.10;88.00;;;;;;5093856;28;20406;-35
2022/11/13 06:26:13;;;;;;;1.60;1.40;;;11.20;88.40;;;;;;5091171;28;20898;-35
2022/11/13 06:28:39;;;;;;;1.53;1.40;;;11.20;90.10;;;;;;5090618;28;21014;-35
2022/11/13 06:31:10;;;;;;;1.33;1.13;;;11.20;90.50;;;;;;5090888;28;20471;-35
2022/11/13 06:33:37;;;;;;;2.20;1.70;;;11.20;90.10;;;;;;5089743;28;20965;-35
2022/11/13 06:36:05;;;;;;;3.17;2.00;;;11.10;91.70;;;;;;5089449;28;20452;-35
2022/11/13 06:38:35;;;;;;;2.20;2.03;;;11.00;92.30;;;;;;5090561;28;20450;-35
2022/11/13 06:41:01;;;;;;;2.30;2.10;;;10.80;93.30;;;;;;5090472;28;20410;-35
2022/11/13 06:43:27;;;;;;;3.67;2.10;;;10.60;93.80;;;;;;5090464;28;21124;-35
2022/11/13 06:45:53;;;;;;;2.60;2.40;;;10.40;94.50;;;;;;5090683;28;20406;-36
2022/11/13 06:48:19;;;;;;;2.90;2.60;;;10.20;95.70;;;;;;5090756;28;20787;-35
2022/11/13 06:50:45;;;;;;;2.70;2.50;;;10.00;97.00;;;;;;5090219;28;20414;-35
2022/11/13 06:53:11;;;;;;;2.53;2.33;;;9.90;97.80;;;;;;5090302;28;20710;-35
2022/11/13 06:55:43;;;;;;;2.33;2.13;;;9.80;98.60;;;;;;5089991;28;20419;-36
2022/11/13 06:58:08;;;;;;;3.20;2.10;;;9.80;97.80;;;;;;5090364;28;20203;-35
2022/11/13 07:00:34;;;;;;;4.03;2.63;;;9.70;98.60;;;;;;5090041;28;21016;-36
2022/11/13 07:02:59;;;;;;;2.43;2.07;;;9.50;99.60;;;;;;5090158;28;20546;-35
2022/11/13 07:05:25;;;;;;;3.33;3.03;;;9.50;99.70;;;;;;5090295;28;20523;-36
2022/11/13 07:07:51;;;;;;;5.00;2.83;;;9.40;99.90;;;;;;5090377;28;20260;-35
2022/11/13 07:10:17;;;;;;;3.10;2.80;;;9.30;99.90;;;;;;5089712;28;20176;-35
2022/11/13 07:12:43;;;;;;;5.53;2.70;;;9.20;99.90;;;;;;5089837;28;20471;-35
2022/11/13 07:15:09;;;;;;;3.10;2.77;;;9.10;99.90;;;;;;5090232;28;20164;-36
2022/11/13 07:17:35;;;;;;;3.53;2.90;;;9.10;99.90;;;;;;5090431;28;20815;-35
2022/11/13 07:20:00;;;;;;;3.07;2.87;;;9.10;99.90;;;;;;5106273;27;20567;-36
2022/11/13 07:22:29;;;;;;;4.90;2.70;;;9.00;99.90;;;;;;5115857;27;20585;-36
2022/11/13 07:24:54;;;;;;;2.90;2.60;;;9.00;99.90;;;;;;5117459;27;20190;-36
2022/11/13 07:27:20;;;;;;;3.57;2.77;;;8.90;99.90;;;;;;5109163;28;20402;-36
2022/11/13 07:29:46;;;;;;;2.60;2.40;;;8.90;99.90;;;;;;5107522;28;20275;-36
2022/11/13 07:32:11;;;;;;;2.83;2.50;;;8.90;99.90;;;;;;5105923;28;20188;-35
2022/11/13 07:34:37;;;;;;;4.00;3.10;;;8.80;99.90;;;;;;5117772;28;20172;-35
2022/11/13 07:37:05;;;;;;;3.00;2.70;;;8.80;99.90;;;;;;5130830;28;20190;-36
2022/11/13 07:39:31;;;;;;;2.70;2.50;;;8.80;99.90;;;;;;5130159;27;20219;-36
2022/11/13 07:41:57;;;;;;;2.50;2.30;;;8.80;99.90;;;;;;5130880;27;20407;-36
2022/11/13 07:44:22;;;;;;;3.30;3.00;;;8.80;99.90;;;;;;5130351;27;20873;-36
2022/11/13 07:46:48;;;;;;;5.73;3.07;;;8.80;99.90;;;;;;5130717;27;20186;-35
2022/11/13 07:49:14;;;;;;;3.70;3.30;;;8.90;99.90;;;;;;5130413;27;20172;-36
2022/11/13 07:51:39;;;;;;;2.83;2.53;;;9.00;99.90;;;;;;5130758;27;20226;-36
2022/11/13 07:54:05;;;;;;;2.67;2.47;;;9.00;99.90;;;;;;5115972;27;20188;-35
2022/11/13 07:56:31;;;;;;;4.80;3.40;;;9.00;99.90;;;;;;5123412;28;20195;-35
2022/11/13 07:58:56;;;;;;;5.70;4.20;;;9.10;99.90;;;;;;5109175;28;20211;-35
2022/11/13 08:01:22;;;;;;;7.57;4.70;;;9.30;99.90;;;;;;5109989;28;20219;-36
2022/11/13 08:03:48;;;;;;;5.60;4.40;;;9.50;99.90;;;;;;5109729;28;20657;-35
2022/11/13 08:06:13;;;;;;;5.30;4.73;;;9.70;99.90;;;;;;5109821;28;20207;-35
2022/11/13 08:08:39;;;;;;;7.30;5.27;;;10.10;99.90;;;;;;5109310;28;20184;-37
2022/11/13 08:11:06;;;;;;;4.43;3.63;;;10.40;99.90;;;;;;5109034;28;20191;-35
2022/11/13 08:13:33;;;;;;;3.83;3.43;;;10.80;99.90;;;;;;5106711;28;20191;-35
2022/11/13 08:16:00;;;;;;;4.57;3.60;;;11.20;99.90;;;;;;5117654;27;20420;-36
2022/11/13 08:18:29;;;;;;;3.77;3.47;;;11.50;99.60;;;;;;5100994;28;20499;-35
2022/11/13 08:20:55;;;;;;;4.80;4.40;;;11.90;97.90;;;;;;5105113;27;20472;-36
2022/11/13 08:23:22;;;;;;;4.97;4.40;;;12.20;98.60;;;;;;5093496;28;20442;-35
2022/11/13 08:25:48;;;;;;;5.40;4.90;;;12.20;98.50;;;;;;5091511;27;20482;-35
2022/11/13 08:28:14;;;;;;;7.20;4.90;;;12.20;99.10;;;;;;5093059;28;20455;-36
2022/11/13 08:30:42;;;;;;;5.90;4.93;;;12.00;99.90;;;;;;5104408;27;20462;-36
2022/11/13 08:33:08;;;;;;;11.53;5.73;;;12.00;99.90;;;;;;5093768;28;20533;-35
2022/11/13 08:35:34;;;;;;;6.80;5.07;;;12.10;99.90;;;;;;5106637;27;20540;-36
2022/11/13 08:38:07;;;;;;;6.73;5.23;;;12.30;99.90;;;;;;5099049;28;20681;-35
2022/11/13 08:40:34;;;;;;;6.43;5.17;;;12.50;99.90;;;;;;5089634;28;20292;-36
2022/11/13 08:43:03;;;;;;;10.90;7.40;;;12.60;99.90;;;;;;5088816;28;20500;-36
2022/11/13 08:45:30;;;;;;;8.77;5.60;;;12.70;99.70;;;;;;5130488;27;20447;-36
2022/11/13 08:48:03;;;;;;;7.47;5.27;;;12.80;99.90;;;;;;5133280;27;20449;-36
2022/11/13 08:50:29;;;;;;;8.00;5.97;;;12.90;99.90;;;;;;5115252;27;20456;-35
2022/11/13 08:52:57;;;;;;;6.37;5.77;;;13.00;99.90;;;;;;5119015;27;21182;-36
2022/11/13 08:55:23;;;;;;;5.80;5.13;;;13.10;99.80;;;;;;5112559;27;20782;-35
2022/11/13 08:57:50;;;;;;;5.73;5.13;;;13.30;99.90;;;;;;5092634;27;20935;-36
2022/11/13 09:00:16;;;;;;;6.97;5.20;;;13.50;99.90;;;;;;5097358;27;20442;-36
2022/11/13 09:02:42;;;;;;;5.20;4.70;;;13.70;99.90;;;;;;5120905;27;20469;-36
2022/11/13 09:05:08;;;;;;;6.70;4.60;;;14.10;99.90;;;;;;5113332;27;20871;-36
2022/11/13 09:07:34;;;;;;;4.90;4.40;;;14.40;99.90;;;;;;5091675;27;20244;-36
2022/11/13 09:09:59;;;;;;;5.40;4.00;;;14.80;97.90;;;;;;5092053;28;20211;-36
2022/11/13 09:12:25;;;;;;;4.47;4.07;;;15.00;96.70;;;;;;5090691;27;20220;-36
2022/11/13 09:14:51;;;;;;;5.10;4.20;;;15.30;96.30;;;;;;5106604;27;20245;-36
2022/11/13 09:17:16;;;;;;;4.37;3.93;;;15.60;95.00;;;;;;5103909;27;20300;-36
2022/11/13 09:19:42;;;;;;;4.67;4.20;;;16.00;94.60;;;;;;5110268;27;20225;-36
2022/11/13 09:22:09;;;;;;;5.60;5.10;;;16.30;95.10;;;;;;5105383;27;20460;-35
2022/11/13 09:24:34;;;;;;;4.47;4.07;;;16.60;93.50;;;;;;5108478;27;20277;-36
2022/11/13 09:27:00;;;;;;;4.70;4.20;;;16.90;92.70;;;;;;5102993;27;20977;-36
2022/11/13 09:29:27;;;;;;;5.20;4.30;;;17.20;91.80;;;;;;5102637;27;20272;-36
2022/11/13 09:31:54;;;;;;;5.70;4.33;;;17.50;91.40;;;;;;5097149;27;20365;-36
2022/11/13 09:34:20;;;;;;;5.33;4.83;;;17.40;91.40;;;;;;5099978;27;20446;-36
2022/11/13 09:36:45;;;;;;;4.77;4.27;;;17.40;91.30;;;;;;5096746;27;20453;-36
2022/11/13 09:39:11;;;;;;;5.70;4.40;;;17.60;91.30;;;;;;5101053;27;20848;-36
2022/11/13 09:41:38;;;;;;;5.43;3.97;;;17.80;90.70;;;;;;5096626;27;20269;-36
2022/11/13 09:44:12;;;;;;;4.63;4.07;;;17.90;88.50;;;;;;5101547;27;20573;-36
2022/11/13 09:46:55;;;;;;;5.57;4.03;;;17.90;87.80;;;;;;5103657;27;20532;-37
2022/11/13 09:49:28;;;;;;;4.03;3.60;;;18.00;85.30;;;;;;5101194;27;20807;-36
2022/11/13 09:51:58;;;;;;;5.23;3.87;;;18.10;83.10;;;;;;5109471;27;21122;-36
2022/11/13 09:54:24;;;;;;;5.60;4.50;;;18.10;82.00;;;;;;5105476;27;20557;-36
2022/11/13 09:57:08;;;;;;;7.33;4.57;;;18.20;81.70;;;;;;5119268;27;20567;-36
2022/11/13 09:59:40;;;;;;;5.00;4.50;;;18.30;83.00;;;;;;5105916;27;20548;-36
2022/11/13 10:02:27;;;;;;;4.47;3.90;;;18.40;81.80;;;;;;5094017;27;20459;-36
2022/11/13 10:05:05;;;;;;;4.40;3.90;;;18.50;79.20;;;;;;5102186;27;20635;-36
2022/11/13 10:07:45;;;;;;;5.37;3.97;;;18.60;78.00;;;;;;5097161;27;20465;-37
2022/11/13 10:10:45;;;;;;;4.43;4.00;;;18.50;78.50;;;;;;5097123;27;20445;-37
2022/11/13 10:13:21;;;;;;;6.03;4.63;;;18.50;80.50;;;;;;5103009;27;20469;-36
2022/11/13 10:15:51;;;;;;;5.80;4.47;;;18.40;79.90;;;;;;5095683;27;20453;-37
2022/11/13 10:18:27;;;;;;;4.63;4.13;;;18.40;77.90;;;;;;5105762;27;20458;-35
2022/11/13 10:21:02;;;;;;;4.23;3.83;;;18.30;79.70;;;;;;5095003;28;20421;-37
2022/11/13 10:23:34;;;;;;;3.97;3.57;;;18.20;79.50;;;;;;5101809;27;20939;-37
2022/11/13 10:26:16;;;;;;;4.17;3.77;;;18.10;77.60;;;;;;5090696;28;20441;-36
2022/11/13 10:28:42;;;;;;;5.77;4.70;;;17.90;75.50;;;;;;5090674;28;20552;-36
2022/11/13 10:31:10;;;;;;;5.20;3.60;;;17.80;79.30;;;;;;5090790;28;20920;-36
2022/11/13 10:33:36;;;;;;;3.90;3.50;;;17.70;79.60;;;;;;5088420;28;20192;-36
2022/11/13 10:36:36;;;;;;;4.20;3.80;;;17.60;79.70;;;;;;5090636;28;20434;-37
2022/11/13 10:39:06;;;;;;;4.47;4.07;;;17.50;81.80;;;;;;5090352;28;20539;-36
2022/11/13 10:41:32;;;;;;;4.13;3.77;;;17.40;79.40;;;;;;5090415;28;20425;-36
2022/11/13 10:44:20;;;;;;;4.07;3.67;;;17.40;77.00;;;;;;5090479;28;20944;-37
2022/11/13 10:46:45;;;;;;;5.10;3.70;;;17.30;76.50;;;;;;5090411;28;20406;-37
2022/11/13 10:49:21;;;;;;;4.17;3.77;;;17.20;78.40;;;;;;5090242;28;20479;-36
2022/11/13 10:51:59;;;;;;;7.67;4.10;;;17.20;79.50;;;;;;5089018;28;20595;-36
2022/11/13 10:54:31;;;;;;;4.27;3.57;;;17.20;79.70;;;;;;5100570;28;20428;-36
2022/11/13 10:57:03;;;;;;;5.17;4.10;;;17.10;80.80;;;;;;5103099;28;20434;-36
2022/11/13 10:59:41;;;;;;;5.27;4.00;;;17.00;80.90;;;;;;5088559;28;20507;-36
2022/11/13 11:02:28;;;;;;;5.00;3.90;;;16.90;80.90;;;;;;5090235;28;20850;-36
2022/11/13 11:05:17;;;;;;;7.10;3.07;;;16.90;82.70;;;;;;5090034;28;20433;-36
2022/11/13 11:07:43;;;;;;;6.00;3.17;;;17.00;80.10;;;;;;5089253;28;20434;-36
2022/11/13 11:10:26;;;;;;;9.63;3.97;;;17.00;80.30;;;;;;5091612;28;20943;-37
2022/11/13 11:13:20;;;;;;;3.50;3.20;;;17.10;78.10;;;;;;5095268;28;20795;-36
2022/11/13 11:15:50;;;;;;;3.10;2.80;;;17.10;78.70;;;;;;5110426;28;20467;-36
2022/11/13 11:18:33;;;;;;;3.20;2.90;;;17.10;78.00;;;;;;5109980;28;20978;-36
2022/11/13 11:21:02;;;;;;;5.20;3.20;;;17.20;76.70;;;;;;5096187;28;20417;-36
2022/11/13 11:23:38;;;;;;;3.40;3.10;;;17.30;77.10;;;;;;5100321;28;20513;-36
2022/11/13 11:26:33;;;;;;;4.20;3.80;;;17.40;79.10;;;;;;5090087;28;20444;-36
2022/11/13 11:29:06;;;;;;;4.90;4.43;;;17.50;84.10;;;;;;5089667;28;20826;-36
2022/11/13 11:31:36;;;;;;;5.57;4.50;;;17.60;85.90;;;;;;5088779;28;20868;-36
2022/11/13 11:34:20;;;;;;;5.00;4.30;;;17.70;86.00;;;;;;5088876;28;20846;-37
2022/11/13 11:37:14;;;;;;;5.93;4.60;;;17.90;85.20;;;;;;5089815;28;20426;-36
2022/11/13 11:39:42;;;;;;;5.33;4.83;;;18.10;85.20;;;;;;5089452;28;20465;-36
2022/11/13 11:42:22;;;;;;;4.90;4.40;;;18.40;84.90;;;;;;5089929;28;20860;-36
2022/11/13 11:45:00;;;;;;;6.00;5.30;;;18.60;86.30;;;;;;5089795;28;20425;-36
2022/11/13 11:47:26;;;;;;;8.43;5.77;;;18.80;88.10;;;;;;5088293;28;20418;-36
2022/11/13 11:49:53;;;;;;;6.70;5.17;;;18.90;88.80;;;;;;5089399;28;20429;-36
2022/11/13 11:52:56;;;;;;;5.67;5.17;;;19.00;88.50;;;;;;5089758;28;20422;-37
2022/11/13 11:56:00;;;;;;;5.77;5.27;;;19.10;88.80;;;;;;5097346;28;20459;-37
2022/11/13 11:58:53;;;;;;;5.50;5.00;;;19.20;87.80;;;;;;5049494;28;20473;-37
2022/11/13 12:01:58;;;;;;;6.40;5.30;;;19.20;84.60;;;;;;5089762;28;20944;-36
2022/11/13 12:04:50;;;;;;;5.47;4.97;;;19.30;83.60;;;;;;5073001;28;20407;-37
2022/11/13 12:07:28;;;;;;;5.83;4.97;;;19.30;84.80;;;;;;5089552;28;20430;-36
2022/11/13 12:10:22;;;;;;;6.00;4.53;;;19.30;82.60;;;;;;5096675;28;20444;-37
2022/11/13 12:13:07;;;;;;;4.80;4.40;;;19.20;82.90;;;;;;5109518;28;20420;-36
2022/11/13 12:15:55;;;;;;;4.37;3.97;;;19.00;82.30;;;;;;5109868;28;20416;-37
2022/11/13 12:18:46;;;;;;;4.10;3.80;;;18.90;82.60;;;;;;5111873;28;20534;-37
2022/11/13 12:21:32;;;;;;;4.20;3.80;;;18.70;82.80;;;;;;5092834;28;20789;-37
2022/11/13 12:24:22;;;;;;;4.37;3.97;;;18.50;83.00;;;;;;5099292;27;21074;-37
2022/11/13 12:27:23;;;;;;;3.97;3.60;;;18.40;83.90;;;;;;5093476;28;20773;-36
2022/11/13 12:29:56;;;;;;;4.03;3.73;;;18.30;83.30;;;;;;5104158;28;20416;-37
2022/11/13 12:32:59;;;;;;;4.03;3.63;;;18.20;84.30;;;;;;5112700;28;20409;-36
2022/11/13 12:35:26;;;;;;;3.87;3.57;;;18.00;83.50;;;;;;5113072;28;20420;-36
2022/11/13 12:38:15;;;;;;;5.33;4.27;;;18.00;83.10;;;;;;5113520;28;20509;-37
2022/11/13 12:41:00;;;;;;;3.90;3.60;;;17.90;83.60;;;;;;5113075;28;20421;-37
2022/11/13 12:43:51;;;;;;;4.00;3.27;;;17.80;84.00;;;;;;5113084;28;20759;-37
2022/11/13 12:46:17;;;;;;;4.20;3.80;;;17.70;83.70;;;;;;5113136;28;20405;-37
2022/11/13 12:48:45;;;;;;;3.63;3.33;;;17.70;83.10;;;;;;5112996;28;20425;-37
2022/11/13 12:51:17;;;;;;;4.30;3.20;;;17.70;82.30;;;;;;5113167;28;20783;-36
2022/11/13 12:53:44;;;;;;;4.43;3.97;;;17.70;82.50;;;;;;5112938;28;20470;-36
2022/11/13 12:56:26;;;;;;;6.40;3.60;;;17.70;83.70;;;;;;5112689;28;20469;-37
2022/11/13 12:59:12;;;;;;;4.10;3.70;;;17.70;84.60;;;;;;5112734;28;20461;-37